createdAt,value
2023-03-13T00:01:50.862Z,8.14
2023-03-13T00:04:21.359Z,8.15
2023-03-13T00:06:52.963Z,8.12
2023-03-13T00:09:23.610Z,8.16
2023-03-13T00:11:54.209Z,8.12
2023-03-13T00:14:24.659Z,8.15
2023-03-13T00:16:55.413Z,8.21
2023-03-13T00:19:28.230Z,8.01
2023-03-13T00:22:00.739Z,8.01
2023-03-13T00:24:33.272Z,8.12
2023-03-13T00:27:11.729Z,8.08
2023-03-13T00:29:42.394Z,8.20
2023-03-13T00:32:14.254Z,8.21
2023-03-13T00:34:49.710Z,8.22
2023-03-13T00:37:20.622Z,7.97
2023-03-13T00:39:51.408Z,8.17
2023-03-13T00:42:22.291Z,8.26
2023-03-13T00:44:52.847Z,8.08
2023-03-13T00:47:23.854Z,5.60
2023-03-13T00:49:55.504Z,8.25
2023-03-13T00:52:29.218Z,7.93
2023-03-13T00:54:59.917Z,8.09
2023-03-13T00:57:31.993Z,8.29
2023-03-13T01:00:08.457Z,8.28
2023-03-13T01:02:44.030Z,8.18
2023-03-13T01:05:14.672Z,8.23
2023-03-13T01:07:50.394Z,8.38
2023-03-13T01:10:20.628Z,8.41
2023-03-13T01:12:52.003Z,8.25
2023-03-13T01:15:23.863Z,8.28
2023-03-13T01:17:54.989Z,8.42
2023-03-13T01:20:26.275Z,8.45
2023-03-13T01:22:58.063Z,8.43
2023-03-13T01:25:28.845Z,8.32
2023-03-13T01:27:59.498Z,8.35
2023-03-13T01:30:31.797Z,8.46
2023-03-13T01:33:07.702Z,8.44
2023-03-13T01:35:38.492Z,8.31
2023-03-13T01:38:09.680Z,8.34
2023-03-13T01:40:49.188Z,8.39
2023-03-13T01:43:28.354Z,8.44
2023-03-13T01:46:15.473Z,8.43
2023-03-13T01:48:58.201Z,8.35
2023-03-13T01:51:40.689Z,8.33
2023-03-13T01:54:19.481Z,8.49
2023-03-13T01:56:52.813Z,8.53
2023-03-13T01:59:32.275Z,8.67
2023-03-13T02:02:04.351Z,8.61
2023-03-13T02:04:38.271Z,8.70
2023-03-13T02:07:23.638Z,8.58
2023-03-13T02:09:55.636Z,7.70
2023-03-13T02:12:35.943Z,8.08
2023-03-13T02:15:09.754Z,8.62
2023-03-13T02:17:41.806Z,8.63
2023-03-13T02:20:13.811Z,8.37
2023-03-13T02:22:59.108Z,8.72
2023-03-13T02:25:35.795Z,8.77
2023-03-13T02:28:30.723Z,8.83
2023-03-13T02:31:01.961Z,8.21
2023-03-13T02:33:39.764Z,8.80
2023-03-13T02:36:12.631Z,8.93
2023-03-13T02:38:54.940Z,6.97
2023-03-13T02:41:26.603Z,8.12
2023-03-13T02:43:57.070Z,8.97
2023-03-13T02:46:28.877Z,9.11
2023-03-13T02:49:19.692Z,8.29
2023-03-13T02:51:50.937Z,9.00
2023-03-13T02:54:24.702Z,9.11
2023-03-13T02:56:59.642Z,9.08
2023-03-13T02:59:31.028Z,8.99
2023-03-13T03:02:02.656Z,8.31
2023-03-13T03:04:35.506Z,9.29
2023-03-13T03:07:05.931Z,9.44
2023-03-13T03:09:36.643Z,9.35
2023-03-13T03:12:11.747Z,9.04
2023-03-13T03:14:42.420Z,9.41
2023-03-13T03:17:12.805Z,9.26
2023-03-13T03:19:45.248Z,9.34
2023-03-13T03:22:16.490Z,9.31
2023-03-13T03:24:47.140Z,9.27
2023-03-13T03:27:20.780Z,9.24
2023-03-13T03:29:51.756Z,9.24
2023-03-13T03:32:23.682Z,9.36
2023-03-13T03:34:54.325Z,9.39
2023-03-13T03:37:30.434Z,9.32
2023-03-13T03:40:01.354Z,9.35
2023-03-13T03:42:33.123Z,9.32
2023-03-13T03:45:09.309Z,7.78
2023-03-13T03:47:39.742Z,9.16
2023-03-13T03:50:10.617Z,9.27
2023-03-13T03:52:42.916Z,9.16
2023-03-13T03:55:13.440Z,8.62
2023-03-13T03:57:43.975Z,9.05
2023-03-13T04:00:15.732Z,9.16
2023-03-13T04:02:55.540Z,9.25
2023-03-13T04:05:27.165Z,9.23
2023-03-13T04:07:57.415Z,9.33
2023-03-13T04:10:29.584Z,8.70
2023-03-13T04:13:00.222Z,9.29
2023-03-13T04:15:31.021Z,9.28
2023-03-13T04:18:05.442Z,9.24
2023-03-13T04:20:37.052Z,9.25
2023-03-13T04:23:07.276Z,9.31
2023-03-13T04:25:38.540Z,9.25
2023-03-13T04:28:09.406Z,9.27
2023-03-13T04:30:40.108Z,8.08
2023-03-13T04:33:10.405Z,9.23
2023-03-13T04:35:45.785Z,9.26
2023-03-13T04:38:16.581Z,8.89
2023-03-13T04:40:47.933Z,9.21
2023-03-13T04:43:18.646Z,9.26
2023-03-13T04:45:53.824Z,9.22
2023-03-13T04:48:24.491Z,9.29
2023-03-13T04:50:54.713Z,9.23
2023-03-13T04:53:25.498Z,9.22
2023-03-13T04:55:55.757Z,9.19
2023-03-13T04:58:26.525Z,9.14
2023-03-13T05:01:01.978Z,9.14
2023-03-13T05:03:32.873Z,9.25
2023-03-13T05:06:04.124Z,9.24
2023-03-13T05:08:35.619Z,9.13
2023-03-13T05:11:06.539Z,9.09
2023-03-13T05:13:37.368Z,9.07
2023-03-13T05:16:08.416Z,8.49
2023-03-13T05:18:40.444Z,9.18
2023-03-13T05:21:10.961Z,9.31
2023-03-13T05:23:41.678Z,9.35
2023-03-13T05:26:17.218Z,9.22
2023-03-13T05:28:47.992Z,9.39
2023-03-13T05:31:18.389Z,9.35
2023-03-13T05:33:49.093Z,9.38
2023-03-13T05:36:19.398Z,9.44
2023-03-13T05:38:50.232Z,9.15
2023-03-13T05:41:20.620Z,8.80
2023-03-13T05:43:55.759Z,9.04
2023-03-13T05:46:26.348Z,9.17
2023-03-13T05:48:56.844Z,9.66
2023-03-13T05:51:27.206Z,9.72
2023-03-13T05:53:58.055Z,9.74
2023-03-13T05:56:28.803Z,9.89
2023-03-13T05:58:59.950Z,9.91
2023-03-13T06:01:33.436Z,9.28
2023-03-13T06:04:04.433Z,9.72
2023-03-13T06:06:34.804Z,9.31
2023-03-13T06:09:11.013Z,9.69
2023-03-13T06:11:42.520Z,9.41
2023-03-13T06:14:13.833Z,9.95
2023-03-13T06:16:44.709Z,9.88
2023-03-13T06:19:16.274Z,9.93
2023-03-13T06:21:47.022Z,9.98
2023-03-13T06:24:17.847Z,9.92
2023-03-13T06:26:50.939Z,7.70
2023-03-13T06:29:23.316Z,9.40
2023-03-13T06:31:53.910Z,10.14
2023-03-13T06:34:29.308Z,10.21
2023-03-13T06:36:59.938Z,10.23
2023-03-13T06:39:31.050Z,8.97
2023-03-13T06:42:01.634Z,10.15
2023-03-13T06:44:32.154Z,10.13
2023-03-13T06:47:02.557Z,9.48
2023-03-13T06:49:33.474Z,9.85
2023-03-13T06:52:08.937Z,9.08
2023-03-13T06:54:39.498Z,10.19
2023-03-13T06:57:10.452Z,10.27
2023-03-13T06:59:41.069Z,10.31
2023-03-13T07:02:11.899Z,10.41
2023-03-13T07:04:45.118Z,10.40
2023-03-13T07:07:29.481Z,10.37
2023-03-13T07:10:04.216Z,10.39
2023-03-13T07:12:34.989Z,9.69
2023-03-13T07:15:07.064Z,10.53
2023-03-13T07:17:37.174Z,10.32
2023-03-13T07:20:10.207Z,9.96
2023-03-13T07:22:41.181Z,10.06
2023-03-13T07:25:11.897Z,10.63
2023-03-13T07:27:42.526Z,10.56
2023-03-13T07:30:13.463Z,9.24
2023-03-13T07:32:48.504Z,10.69
2023-03-13T07:35:19.482Z,10.80
2023-03-13T07:37:49.754Z,10.79
2023-03-13T07:40:20.647Z,10.78
2023-03-13T07:42:51.522Z,10.77
2023-03-13T07:45:22.090Z,10.77
2023-03-13T07:47:52.824Z,10.73
2023-03-13T07:50:28.735Z,10.72
2023-03-13T07:52:59.513Z,10.76
2023-03-13T07:55:30.318Z,10.86
2023-03-13T07:58:00.481Z,10.84
2023-03-13T08:00:31.127Z,10.81
2023-03-13T08:03:01.487Z,10.90
2023-03-13T08:05:32.365Z,10.90
2023-03-13T08:08:08.918Z,10.93
2023-03-13T08:10:39.532Z,10.96
2023-03-13T08:13:10.681Z,11.04
2023-03-13T08:15:44.672Z,11.08
2023-03-13T08:18:16.969Z,11.06
2023-03-13T08:20:47.592Z,11.11
2023-03-13T08:23:18.201Z,11.11
2023-03-13T08:25:48.884Z,11.21
2023-03-13T08:28:19.270Z,11.27
2023-03-13T08:30:50.156Z,11.30
2023-03-13T08:33:26.245Z,11.37
2023-03-13T08:35:57.022Z,11.39
2023-03-13T08:38:27.400Z,11.57
2023-03-13T08:40:58.025Z,11.56
2023-03-13T08:43:29.014Z,11.57
2023-03-13T08:45:59.913Z,11.62
2023-03-13T08:48:30.857Z,11.69
2023-03-13T08:51:05.751Z,11.85
2023-03-13T08:53:38.832Z,11.67
2023-03-13T08:56:10.972Z,11.52
2023-03-13T08:58:58.048Z,11.93
2023-03-13T09:01:31.140Z,11.91
2023-03-13T09:04:04.559Z,11.33
2023-03-13T09:06:37.285Z,12.02
2023-03-13T09:09:09.234Z,11.87
2023-03-13T09:11:39.832Z,11.21
2023-03-13T09:14:13.076Z,12.20
2023-03-13T09:16:45.644Z,12.31
2023-03-13T09:19:16.477Z,12.19
2023-03-13T09:21:52.457Z,12.09
2023-03-13T09:24:23.608Z,12.31
2023-03-13T09:27:01.304Z,12.48
2023-03-13T09:29:40.827Z,12.57
2023-03-13T09:32:11.487Z,12.37
2023-03-13T09:34:42.781Z,12.78
2023-03-13T09:37:18.802Z,12.57
2023-03-13T09:39:50.263Z,12.79
2023-03-13T09:42:26.802Z,12.01
2023-03-13T09:45:05.784Z,12.87
2023-03-13T09:47:43.824Z,13.10
2023-03-13T09:50:19.572Z,13.14
2023-03-13T09:52:54.101Z,12.78
2023-03-13T09:55:33.797Z,13.13
2023-03-13T09:58:16.320Z,12.97
2023-03-13T10:00:53.549Z,13.02
2023-03-13T10:03:27.608Z,13.01
2023-03-13T10:06:04.710Z,12.97
2023-03-13T10:08:35.453Z,12.92
2023-03-13T10:11:08.945Z,12.99
2023-03-13T10:14:20.306Z,12.97
2023-03-13T10:17:10.553Z,13.03
2023-03-13T10:19:43.061Z,12.26
2023-03-13T10:22:22.110Z,12.60
2023-03-13T10:25:04.448Z,13.05
2023-03-13T10:27:50.813Z,13.18
2023-03-13T10:30:29.025Z,12.30
2023-03-13T10:33:01.315Z,13.15
2023-03-13T10:35:38.415Z,13.22
2023-03-13T10:38:12.307Z,12.94
2023-03-13T10:40:43.175Z,12.33
2023-03-13T10:43:21.968Z,13.37
2023-03-13T10:45:53.674Z,13.40
2023-03-13T10:48:27.033Z,11.81
2023-03-13T10:51:02.427Z,13.32
2023-03-13T10:53:36.431Z,12.51
2023-03-13T10:56:13.057Z,13.32
2023-03-13T10:58:49.958Z,9.49
2023-03-13T11:01:31.827Z,13.44
2023-03-13T11:04:34.883Z,11.72
2023-03-13T11:07:34.535Z,13.02
2023-03-13T11:10:21.227Z,12.59
2023-03-13T11:12:57.862Z,13.47
2023-03-13T11:15:50.807Z,13.55
2023-03-13T11:18:58.007Z,13.37
2023-03-13T11:21:41.011Z,13.51
2023-03-13T11:24:39.101Z,13.65
2023-03-13T11:27:33.366Z,13.62
2023-03-13T11:30:16.972Z,13.44
2023-03-13T11:33:01.607Z,13.22
2023-03-13T11:35:41.359Z,13.56
2023-03-13T11:38:39.304Z,13.72
2023-03-13T11:41:13.055Z,13.76
2023-03-13T11:44:20.690Z,13.70
2023-03-13T11:47:19.322Z,13.63
2023-03-13T11:50:02.235Z,13.84
2023-03-13T11:52:46.536Z,13.82
2023-03-13T11:55:35.884Z,13.88
2023-03-13T11:58:20.770Z,14.00
2023-03-13T12:01:21.374Z,13.98
2023-03-13T12:04:17.178Z,14.06
2023-03-13T12:06:53.316Z,14.07
2023-03-13T12:09:47.458Z,14.12
2023-03-13T12:12:28.753Z,14.03
2023-03-13T12:15:14.344Z,14.10
2023-03-13T12:18:02.703Z,14.10
2023-03-13T12:20:39.293Z,11.87
2023-03-13T12:23:23.424Z,14.16
2023-03-13T12:26:03.220Z,14.16
2023-03-13T12:29:15.020Z,14.28
2023-03-13T12:31:53.041Z,13.28
2023-03-13T12:34:42.795Z,13.94
2023-03-13T12:37:52.403Z,14.07
2023-03-13T12:40:28.906Z,14.04
2023-03-13T12:43:10.832Z,13.21
2023-03-13T12:45:54.628Z,13.90
2023-03-13T12:48:25.568Z,14.02
2023-03-13T12:51:27.976Z,13.60
2023-03-13T12:54:21.842Z,14.04
2023-03-13T12:57:30.231Z,14.09
2023-03-13T13:00:05.322Z,14.09
2023-03-13T13:02:36.255Z,14.12
2023-03-13T13:05:21.597Z,13.78
2023-03-13T13:07:54.751Z,13.76
2023-03-13T13:10:26.115Z,13.96
2023-03-13T13:13:30.330Z,14.07
2023-03-13T13:16:07.243Z,13.64
2023-03-13T13:18:37.676Z,14.04
2023-03-13T13:21:25.838Z,14.01
2023-03-13T13:24:35.085Z,14.13
2023-03-13T13:27:34.869Z,14.15
2023-03-13T13:30:18.163Z,14.08
2023-03-13T13:33:13.865Z,14.20
2023-03-13T13:35:45.765Z,14.04
2023-03-13T13:38:19.747Z,13.90
2023-03-13T13:41:25.422Z,14.24
2023-03-13T13:44:21.392Z,14.16
2023-03-13T13:46:57.902Z,14.02
2023-03-13T13:49:33.012Z,14.07
2023-03-13T13:52:03.618Z,14.25
2023-03-13T13:54:41.772Z,14.13
2023-03-13T13:57:19.366Z,14.04
2023-03-13T13:59:53.668Z,14.04
2023-03-13T14:02:39.097Z,14.00
2023-03-13T14:05:18.476Z,13.16
2023-03-13T14:08:13.519Z,13.93
2023-03-13T14:10:46.425Z,14.04
2023-03-13T14:13:21.774Z,13.87
2023-03-13T14:15:52.685Z,13.91
2023-03-13T14:18:28.340Z,14.05
2023-03-13T14:21:04.480Z,14.04
2023-03-13T14:23:41.552Z,13.65
2023-03-13T14:26:17.206Z,13.94
2023-03-13T14:28:53.386Z,13.88
2023-03-13T14:31:28.275Z,13.81
2023-03-13T14:34:01.054Z,13.85
2023-03-13T14:36:55.544Z,13.75
2023-03-13T14:39:44.516Z,13.75
2023-03-13T14:42:17.078Z,13.64
2023-03-13T14:44:49.371Z,13.05
2023-03-13T14:47:26.478Z,13.73
2023-03-13T14:50:04.822Z,13.61
2023-03-13T14:52:36.299Z,13.09
2023-03-13T14:55:27.143Z,13.32
2023-03-13T14:58:17.919Z,13.29
2023-03-13T15:00:48.999Z,13.53
2023-03-13T15:03:31.409Z,12.05
2023-03-13T15:06:11.284Z,13.63
2023-03-13T15:09:05.137Z,13.21
2023-03-13T15:11:40.158Z,13.51
2023-03-13T15:14:31.379Z,13.56
2023-03-13T15:17:34.696Z,13.59
2023-03-13T15:20:09.791Z,13.34
2023-03-13T15:22:44.189Z,13.52
2023-03-13T15:25:17.010Z,13.69
2023-03-13T15:27:49.213Z,13.65
2023-03-13T15:30:24.504Z,13.81
2023-03-13T15:32:54.996Z,13.91
2023-03-13T15:35:29.464Z,13.69
2023-03-13T15:38:01.835Z,13.73
2023-03-13T15:40:32.427Z,13.02
2023-03-13T15:43:03.787Z,13.76
2023-03-13T15:45:40.938Z,13.86
2023-03-13T15:48:21.570Z,13.83
2023-03-13T15:50:55.509Z,13.80
2023-03-13T15:53:31.321Z,13.75
2023-03-13T15:56:05.331Z,13.90
2023-03-13T15:58:36.669Z,13.78
2023-03-13T16:01:10.264Z,13.71
2023-03-13T16:03:41.318Z,13.74
2023-03-13T16:06:14.191Z,13.73
2023-03-13T16:08:46.441Z,13.70
2023-03-13T16:11:17.016Z,13.53
2023-03-13T16:13:47.470Z,13.62
2023-03-13T16:16:24.096Z,13.73
2023-03-13T16:18:55.845Z,13.86
2023-03-13T16:21:28.999Z,13.49
2023-03-13T16:24:00.195Z,13.87
2023-03-13T16:26:31.296Z,12.60
2023-03-13T16:29:01.995Z,13.83
2023-03-13T16:31:33.081Z,13.92
2023-03-13T16:34:04.539Z,13.99
2023-03-13T16:36:35.680Z,14.04
2023-03-13T16:39:10.468Z,14.04
2023-03-13T16:41:45.080Z,14.17
2023-03-13T16:44:15.324Z,14.06
2023-03-13T16:46:59.255Z,14.18
2023-03-13T16:49:34.972Z,14.02
2023-03-13T16:52:05.715Z,14.08
2023-03-13T16:54:36.218Z,14.12
2023-03-13T16:57:23.513Z,14.22
2023-03-13T16:59:53.722Z,14.20
2023-03-13T17:02:24.449Z,14.02
2023-03-13T17:04:54.690Z,14.10
2023-03-13T17:07:26.425Z,14.13
2023-03-13T17:09:56.694Z,14.13
2023-03-13T17:12:32.885Z,14.12
2023-03-13T17:15:04.066Z,14.10
2023-03-13T17:17:34.892Z,14.12
2023-03-13T17:20:09.427Z,14.05
2023-03-13T17:22:40.692Z,14.17
2023-03-13T17:25:11.507Z,13.91
2023-03-13T17:27:43.241Z,14.16
2023-03-13T17:30:23.900Z,13.95
2023-03-13T17:32:54.713Z,14.14
2023-03-13T17:35:25.104Z,14.03
2023-03-13T17:37:55.889Z,14.06
2023-03-13T17:40:28.252Z,14.04
2023-03-13T17:42:59.052Z,13.93
2023-03-13T17:45:36.136Z,13.98
2023-03-13T17:48:11.560Z,13.93
2023-03-13T17:50:41.737Z,13.71
2023-03-13T17:53:16.104Z,13.90
2023-03-13T17:55:46.654Z,13.96
2023-03-13T17:58:17.253Z,13.91
2023-03-13T18:00:48.096Z,13.80
2023-03-13T18:03:18.792Z,13.69
2023-03-13T18:05:49.416Z,13.46
2023-03-13T18:08:20.156Z,13.52
2023-03-13T18:10:54.437Z,13.54
2023-03-13T18:13:24.944Z,13.67
2023-03-13T18:15:55.092Z,13.64
2023-03-13T18:18:25.863Z,13.43
2023-03-13T18:20:56.564Z,13.57
2023-03-13T18:23:27.344Z,13.58
2023-03-13T18:25:57.769Z,13.48
2023-03-13T18:28:31.047Z,13.38
2023-03-13T18:31:01.329Z,13.46
2023-03-13T18:33:32.071Z,13.11
2023-03-13T18:36:02.942Z,13.37
2023-03-13T18:38:33.942Z,13.10
2023-03-13T18:41:04.284Z,13.38
2023-03-13T18:43:34.957Z,13.43
2023-03-13T18:46:25.896Z,13.45
2023-03-13T18:48:57.045Z,13.15
2023-03-13T18:51:32.226Z,13.34
2023-03-13T18:54:03.335Z,13.42
2023-03-13T18:56:33.814Z,13.13
2023-03-13T18:59:08.928Z,13.35
2023-03-13T19:01:39.349Z,12.99
2023-03-13T19:04:09.690Z,13.36
2023-03-13T19:06:41.033Z,13.26
2023-03-13T19:09:41.703Z,13.24
2023-03-13T19:12:10.897Z,13.18
2023-03-13T19:14:41.531Z,13.26
2023-03-13T19:17:18.623Z,13.25
2023-03-13T19:19:49.055Z,13.25
2023-03-13T19:22:25.385Z,11.00
2023-03-13T19:24:55.437Z,13.15
2023-03-13T19:27:26.307Z,12.34
2023-03-13T19:30:01.872Z,12.84
2023-03-13T19:32:32.940Z,13.06
2023-03-13T19:35:04.823Z,13.01
2023-03-13T19:37:35.542Z,12.62
2023-03-13T19:40:15.384Z,12.20
2023-03-13T19:42:46.245Z,13.21
2023-03-13T19:45:17.102Z,12.80
2023-03-13T19:47:48.075Z,13.04
2023-03-13T19:50:21.263Z,13.16
2023-03-13T19:52:51.898Z,12.93
2023-03-13T19:55:22.434Z,13.16
2023-03-13T19:57:52.854Z,13.23
2023-03-13T20:00:26.662Z,13.18
2023-03-13T20:03:01.341Z,13.10
2023-03-13T20:05:32.087Z,13.08
2023-03-13T20:08:02.709Z,13.11
2023-03-13T20:10:38.833Z,12.62
2023-03-13T20:13:09.174Z,13.20
2023-03-13T20:15:39.390Z,13.08
2023-03-13T20:18:09.711Z,13.12
2023-03-13T20:20:40.103Z,13.04
2023-03-13T20:23:11.042Z,12.95
2023-03-13T20:25:41.306Z,13.00
2023-03-13T20:28:15.256Z,13.05
2023-03-13T20:30:47.683Z,13.03
2023-03-13T20:33:18.319Z,13.06
2023-03-13T20:36:07.679Z,13.00
2023-03-13T20:38:39.172Z,12.86
2023-03-13T20:41:10.119Z,12.92
2023-03-13T20:43:41.989Z,12.99
2023-03-13T20:46:12.880Z,12.84
2023-03-13T20:48:43.378Z,12.85
2023-03-13T20:51:18.253Z,12.91
2023-03-13T20:53:49.670Z,12.99
2023-03-13T20:56:20.073Z,12.99
2023-03-13T20:58:50.677Z,12.96
2023-03-13T21:01:24.640Z,12.90
2023-03-13T21:03:55.446Z,12.86
2023-03-13T21:06:26.685Z,12.38
2023-03-13T21:08:59.365Z,12.80
2023-03-13T21:11:29.710Z,12.14
2023-03-13T21:14:00.636Z,12.35
2023-03-13T21:16:35.641Z,12.92
2023-03-13T21:19:06.396Z,12.78
2023-03-13T21:21:37.318Z,12.74
2023-03-13T21:24:08.547Z,12.81
2023-03-13T21:26:39.159Z,12.77
2023-03-13T21:29:10.164Z,12.87
2023-03-13T21:31:40.988Z,12.80
2023-03-13T21:34:16.189Z,12.86
2023-03-13T21:36:46.544Z,12.93
2023-03-13T21:39:18.436Z,12.80
2023-03-13T21:41:54.479Z,12.83
2023-03-13T21:44:27.389Z,12.81
2023-03-13T21:46:58.343Z,12.69
2023-03-13T21:49:29.167Z,12.84
2023-03-13T21:52:00.041Z,12.84
2023-03-13T21:54:30.438Z,12.73
2023-03-13T21:57:00.786Z,12.80
2023-03-13T21:59:34.490Z,12.83
2023-03-13T22:02:04.946Z,12.73
2023-03-13T22:04:35.635Z,12.57
2023-03-13T22:07:06.439Z,12.62
2023-03-13T22:09:37.325Z,12.66
2023-03-13T22:12:07.634Z,12.71
2023-03-13T22:14:38.086Z,12.79
2023-03-13T22:17:16.128Z,12.73
2023-03-13T22:19:46.984Z,12.79
2023-03-13T22:22:19.303Z,12.58
2023-03-13T22:24:53.563Z,12.54
2023-03-13T22:27:24.769Z,12.57
2023-03-13T22:29:56.384Z,12.40
2023-03-13T22:32:31.317Z,12.39
2023-03-13T22:35:01.963Z,12.49
2023-03-13T22:37:33.967Z,11.92
2023-03-13T22:40:06.704Z,12.25
2023-03-13T22:42:37.378Z,11.89
2023-03-13T22:45:09.514Z,12.34
2023-03-13T22:47:40.096Z,12.24
2023-03-13T22:50:12.069Z,12.30
2023-03-13T22:52:42.680Z,12.38
2023-03-13T22:55:13.246Z,12.37
2023-03-13T22:57:49.358Z,12.34
2023-03-13T23:00:20.027Z,12.26
2023-03-13T23:02:50.391Z,12.32
2023-03-13T23:05:20.945Z,12.31
2023-03-13T23:07:51.830Z,12.30
2023-03-13T23:10:22.608Z,12.13
2023-03-13T23:12:53.474Z,12.18
2023-03-13T23:15:33.486Z,11.65
2023-03-13T23:18:08.885Z,12.01
2023-03-13T23:20:39.076Z,12.17
2023-03-13T23:23:11.975Z,12.23
2023-03-13T23:25:42.512Z,12.27
2023-03-13T23:28:12.980Z,11.85
2023-03-13T23:30:43.739Z,11.97
2023-03-13T23:33:14.570Z,11.89
2023-03-13T23:35:45.225Z,11.32
2023-03-13T23:38:17.648Z,10.98
2023-03-13T23:40:48.618Z,11.83
2023-03-13T23:43:19.394Z,11.92
2023-03-13T23:45:49.845Z,11.97
2023-03-13T23:48:25.393Z,12.00
2023-03-13T23:50:56.115Z,11.88
2023-03-13T23:53:26.635Z,11.89
2023-03-13T23:55:57.789Z,12.00
2023-03-13T23:58:28.492Z,11.83
